createdAt,value
2022-08-19T00:02:01.614Z,6.78
2022-08-19T00:04:07.080Z,7.32
2022-08-19T00:06:11.491Z,6.65
2022-08-19T00:08:13.723Z,6.78
2022-08-19T00:10:17.337Z,6.40
2022-08-19T00:12:20.025Z,6.65
2022-08-19T00:14:24.297Z,6.50
2022-08-19T00:16:27.030Z,6.85
2022-08-19T00:18:29.648Z,7.28
2022-08-19T00:20:32.255Z,6.65
2022-08-19T00:22:34.997Z,7.22
2022-08-19T00:24:39.090Z,6.30
2022-08-19T00:26:42.765Z,7.00
2022-08-19T00:28:45.602Z,6.70
2022-08-19T00:30:48.198Z,6.55
2022-08-19T00:32:55.568Z,7.03
2022-08-19T00:34:58.415Z,7.50
2022-08-19T00:37:01.063Z,6.93
2022-08-19T00:39:03.468Z,7.20
2022-08-19T00:41:07.296Z,6.80
2022-08-19T00:43:14.496Z,6.43
2022-08-19T00:45:21.456Z,7.15
2022-08-19T00:47:23.636Z,6.57
2022-08-19T00:49:37.253Z,7.07
2022-08-19T00:51:39.298Z,6.75
2022-08-19T00:53:42.076Z,7.03
2022-08-19T00:55:51.422Z,6.97
2022-08-19T00:58:01.695Z,6.55
2022-08-19T01:00:07.467Z,6.63
2022-08-19T01:02:09.986Z,7.28
2022-08-19T01:04:13.067Z,6.70
2022-08-19T01:06:15.733Z,6.63
2022-08-19T01:08:23.374Z,6.50
2022-08-19T01:10:37.657Z,6.45
2022-08-19T01:12:41.584Z,6.50
2022-08-19T01:14:44.109Z,6.75
2022-08-19T01:16:48.144Z,6.82
2022-08-19T01:18:51.068Z,6.63
2022-08-19T01:20:57.207Z,6.97
2022-08-19T01:23:02.601Z,6.60
2022-08-19T01:25:12.874Z,7.63
2022-08-19T01:27:18.087Z,6.90
2022-08-19T01:29:20.471Z,6.93
2022-08-19T01:31:28.163Z,6.93
2022-08-19T01:33:32.402Z,7.60
2022-08-19T01:35:37.212Z,7.45
2022-08-19T01:37:52.936Z,7.25
2022-08-19T01:39:55.234Z,7.95
2022-08-19T01:41:57.486Z,9.15
2022-08-19T01:44:09.938Z,7.63
2022-08-19T01:46:24.594Z,7.97
2022-08-19T01:48:30.499Z,7.85
2022-08-19T01:50:34.308Z,8.05
2022-08-19T01:52:38.336Z,9.23
2022-08-19T01:54:40.492Z,9.00
2022-08-19T01:56:45.340Z,8.55
2022-08-19T01:59:15.758Z,8.45
2022-08-19T02:01:18.508Z,8.00
2022-08-19T02:03:20.901Z,8.10
2022-08-19T02:05:26.492Z,8.05
2022-08-19T02:07:29.635Z,7.90
2022-08-19T02:09:33.406Z,7.63
2022-08-19T02:11:39.664Z,8.32
2022-08-19T02:13:42.127Z,7.63
2022-08-19T02:15:44.548Z,7.70
2022-08-19T02:17:47.857Z,7.40
2022-08-19T02:19:50.185Z,7.70
2022-08-19T02:21:52.962Z,7.15
2022-08-19T02:23:58.085Z,7.30
2022-08-19T02:26:00.500Z,7.32
2022-08-19T02:28:03.123Z,7.03
2022-08-19T02:30:07.212Z,7.90
2022-08-19T02:32:09.335Z,7.60
2022-08-19T02:34:11.806Z,8.15
2022-08-19T02:36:15.623Z,6.70
2022-08-19T02:38:26.995Z,7.40
2022-08-19T02:40:35.137Z,7.35
2022-08-19T02:42:37.383Z,7.25
2022-08-19T02:44:40.320Z,7.60
2022-08-19T02:46:43.158Z,8.52
2022-08-19T02:48:45.561Z,8.32
2022-08-19T02:50:51.710Z,7.22
2022-08-19T02:52:58.340Z,8.57
2022-08-19T02:55:01.480Z,8.98
2022-08-19T02:57:04.117Z,8.77
2022-08-19T02:59:12.269Z,8.38
2022-08-19T03:01:24.045Z,8.52
2022-08-19T03:03:27.050Z,7.65
2022-08-19T03:05:48.180Z,8.63
2022-08-19T03:07:51.453Z,7.63
2022-08-19T03:09:56.741Z,8.52
2022-08-19T03:11:59.292Z,8.48
2022-08-19T03:14:02.836Z,8.70
2022-08-19T03:16:07.243Z,8.93
2022-08-19T03:18:10.076Z,9.10
2022-08-19T03:20:12.801Z,8.32
2022-08-19T03:22:15.202Z,8.32
2022-08-19T03:24:19.984Z,8.48
2022-08-19T03:26:22.634Z,8.18
2022-08-19T03:28:25.295Z,8.52
2022-08-19T03:30:27.497Z,8.27
2022-08-19T03:32:33.257Z,6.90
2022-08-19T03:34:37.937Z,8.25
2022-08-19T03:36:40.645Z,7.95
2022-08-19T03:38:47.560Z,8.52
2022-08-19T03:40:49.886Z,8.35
2022-08-19T03:42:52.193Z,8.05
2022-08-19T03:44:54.596Z,8.73
2022-08-19T03:46:59.314Z,7.93
2022-08-19T03:49:05.898Z,7.75
2022-08-19T03:51:30.578Z,7.95
2022-08-19T03:53:35.646Z,7.93
2022-08-19T03:55:43.091Z,8.15
2022-08-19T03:57:49.890Z,8.35
2022-08-19T03:59:51.986Z,8.27
2022-08-19T04:01:56.895Z,8.48
2022-08-19T04:04:02.052Z,7.40
2022-08-19T04:06:19.469Z,7.65
2022-08-19T04:08:22.306Z,7.57
2022-08-19T04:10:25.312Z,7.28
2022-08-19T04:12:28.390Z,7.25
2022-08-19T04:14:31.663Z,7.10
2022-08-19T04:16:35.060Z,7.55
2022-08-19T04:18:39.859Z,7.72
2022-08-19T04:20:47.052Z,8.57
2022-08-19T04:22:49.573Z,8.73
2022-08-19T04:24:52.184Z,8.20
2022-08-19T04:26:57.503Z,8.30
2022-08-19T04:29:04.407Z,7.63
2022-08-19T04:31:06.900Z,7.93
2022-08-19T04:33:09.861Z,7.68
2022-08-19T04:35:17.688Z,8.20
2022-08-19T04:37:21.244Z,7.93
2022-08-19T04:39:49.214Z,7.43
2022-08-19T04:42:09.941Z,7.35
2022-08-19T04:44:13.103Z,7.00
2022-08-19T04:46:23.484Z,7.80
2022-08-19T04:48:44.916Z,7.95
2022-08-19T04:50:53.377Z,6.93
2022-08-19T04:52:57.206Z,7.55
2022-08-19T04:54:59.893Z,8.15
2022-08-19T04:57:01.924Z,7.72
2022-08-19T04:59:04.994Z,8.18
2022-08-19T05:01:07.112Z,8.50
2022-08-19T05:03:09.665Z,6.50
2022-08-19T05:05:12.052Z,7.35
2022-08-19T05:07:14.655Z,6.90
2022-08-19T05:09:18.107Z,7.10
2022-08-19T05:11:26.638Z,7.93
2022-08-19T05:13:29.134Z,6.90
2022-08-19T05:15:34.552Z,6.82
2022-08-19T05:17:38.937Z,7.32
2022-08-19T05:20:00.101Z,6.60
2022-08-19T05:22:20.770Z,7.20
2022-08-19T05:24:24.774Z,7.00
2022-08-19T05:26:27.719Z,7.20
2022-08-19T05:28:29.927Z,6.80
2022-08-19T05:30:46.911Z,7.15
2022-08-19T05:32:50.357Z,7.13
2022-08-19T05:34:56.460Z,6.85
2022-08-19T05:37:00.221Z,7.50
2022-08-19T05:39:04.216Z,8.15
2022-08-19T05:41:14.187Z,7.68
2022-08-19T05:43:17.128Z,8.20
2022-08-19T05:45:19.677Z,7.13
2022-08-19T05:47:22.488Z,7.07
2022-08-19T05:49:26.630Z,6.70
2022-08-19T05:51:29.467Z,7.13
2022-08-19T05:53:35.024Z,6.10
2022-08-19T05:55:40.275Z,7.18
2022-08-19T05:57:42.870Z,6.47
2022-08-19T05:59:47.687Z,6.40
2022-08-19T06:01:52.043Z,6.50
2022-08-19T06:03:55.109Z,7.22
2022-08-19T06:05:59.844Z,6.72
2022-08-19T06:08:02.404Z,5.75
2022-08-19T06:10:10.632Z,6.50
2022-08-19T06:12:12.865Z,7.05
2022-08-19T06:14:19.731Z,7.05
2022-08-19T06:16:34.588Z,7.10
2022-08-19T06:18:36.945Z,6.60
2022-08-19T06:20:55.435Z,6.72
2022-08-19T06:22:58.329Z,6.93
2022-08-19T06:25:00.614Z,6.35
2022-08-19T06:27:06.827Z,6.95
2022-08-19T06:29:12.253Z,7.78
2022-08-19T06:31:29.519Z,6.72
2022-08-19T06:33:31.840Z,6.97
2022-08-19T06:35:39.650Z,6.57
2022-08-19T06:37:44.058Z,7.13
2022-08-19T06:39:46.789Z,7.95
2022-08-19T06:41:58.155Z,6.63
2022-08-19T06:44:01.559Z,7.30
2022-08-19T06:46:13.047Z,7.70
2022-08-19T06:48:17.208Z,7.35
2022-08-19T06:50:20.849Z,7.63
2022-08-19T06:52:27.607Z,6.75
2022-08-19T06:54:31.428Z,6.95
2022-08-19T06:56:39.939Z,7.53
2022-08-19T06:58:42.345Z,7.32
2022-08-19T07:00:44.966Z,6.63
2022-08-19T07:02:52.192Z,7.85
2022-08-19T07:05:04.781Z,7.43
2022-08-19T07:07:19.874Z,7.55
2022-08-19T07:09:23.427Z,7.15
2022-08-19T07:11:26.679Z,7.63
2022-08-19T07:13:34.145Z,7.65
2022-08-19T07:15:39.804Z,7.43
2022-08-19T07:17:42.293Z,7.55
2022-08-19T07:19:45.215Z,7.50
2022-08-19T07:21:54.252Z,6.55
2022-08-19T07:23:58.505Z,7.07
2022-08-19T07:26:11.063Z,6.65
2022-08-19T07:28:15.807Z,7.22
2022-08-19T07:30:29.906Z,6.47
2022-08-19T07:32:35.043Z,6.93
2022-08-19T07:34:38.831Z,7.22
2022-08-19T07:36:44.401Z,7.65
2022-08-19T07:38:49.782Z,6.82
2022-08-19T07:40:52.862Z,7.15
2022-08-19T07:42:55.321Z,7.00
2022-08-19T07:44:58.637Z,7.05
2022-08-19T07:47:01.543Z,7.25
2022-08-19T07:49:05.549Z,7.00
2022-08-19T07:51:09.935Z,6.57
2022-08-19T07:53:13.456Z,7.03
2022-08-19T07:55:42.619Z,7.00
2022-08-19T07:57:40.149Z,6.80
2022-08-19T08:00:32.801Z,6.78
2022-08-19T08:02:35.848Z,6.60
2022-08-19T08:04:56.959Z,7.70
2022-08-19T08:07:18.070Z,7.20
2022-08-19T08:09:30.705Z,7.05
2022-08-19T08:11:33.517Z,6.78
2022-08-19T08:13:42.643Z,7.15
2022-08-19T08:15:45.976Z,6.32
2022-08-19T08:17:51.551Z,7.38
2022-08-19T08:19:55.100Z,7.22
2022-08-19T08:22:00.083Z,7.05
2022-08-19T08:24:02.696Z,6.53
2022-08-19T08:26:05.991Z,6.75
2022-08-19T08:28:11.395Z,6.65
2022-08-19T08:30:25.849Z,6.60
2022-08-19T08:32:33.678Z,6.20
2022-08-19T08:34:39.369Z,6.97
2022-08-19T08:36:46.249Z,6.68
2022-08-19T08:38:49.334Z,6.32
2022-08-19T08:40:57.188Z,6.22
2022-08-19T08:43:11.166Z,5.82
2022-08-19T08:45:19.777Z,5.78
2022-08-19T08:47:26.525Z,6.10
2022-08-19T08:49:48.054Z,6.40
2022-08-19T08:52:06.280Z,6.53
2022-08-19T08:54:13.199Z,6.30
2022-08-19T08:56:18.442Z,7.13
2022-08-19T08:58:32.944Z,6.05
2022-08-19T09:00:41.720Z,6.20
2022-08-19T09:02:45.251Z,6.05
2022-08-19T09:04:55.709Z,6.00
2022-08-19T09:07:35.350Z,5.30
2022-08-19T09:09:43.682Z,5.53
2022-08-19T09:12:01.657Z,5.07
2022-08-19T09:14:40.656Z,4.72
2022-08-19T09:16:39.880Z,5.68
2022-08-19T09:19:00.124Z,5.32
2022-08-19T09:21:02.691Z,5.30
2022-08-19T09:23:05.888Z,4.97
2022-08-19T09:25:11.259Z,4.10
2022-08-19T09:27:18.489Z,4.30
2022-08-19T09:29:22.575Z,3.28
2022-08-19T09:31:28.230Z,3.38
2022-08-19T09:33:30.760Z,3.97
2022-08-19T09:35:49.636Z,3.70
2022-08-19T09:37:59.665Z,3.53
2022-08-19T09:40:02.564Z,3.35
2022-08-19T09:42:06.116Z,3.50
2022-08-19T09:44:19.126Z,3.28
2022-08-19T09:46:24.387Z,3.13
2022-08-19T09:48:27.740Z,2.90
2022-08-19T09:50:33.328Z,3.13
2022-08-19T09:52:39.774Z,3.00
2022-08-19T09:54:57.494Z,3.15
2022-08-19T09:57:04.696Z,2.53
2022-08-19T09:59:11.350Z,3.55
2022-08-19T10:01:19.737Z,2.90
2022-08-19T10:03:25.604Z,3.17
2022-08-19T10:05:55.228Z,3.40
2022-08-19T10:07:58.664Z,3.22
2022-08-19T10:10:01.150Z,3.33
2022-08-19T10:12:06.253Z,3.28
2022-08-19T10:14:08.951Z,2.80
2022-08-19T10:16:16.974Z,3.03
2022-08-19T10:18:21.720Z,2.80
2022-08-19T10:20:23.975Z,2.97
2022-08-19T10:22:28.797Z,2.92
2022-08-19T10:24:34.733Z,2.65
2022-08-19T10:26:43.108Z,2.72
2022-08-19T10:28:47.073Z,3.00
2022-08-19T10:30:49.414Z,2.80
2022-08-19T10:32:51.486Z,2.90
2022-08-19T10:34:57.110Z,2.95
2022-08-19T10:37:02.081Z,3.25
2022-08-19T10:39:08.770Z,3.13
2022-08-19T10:41:18.760Z,3.30
2022-08-19T10:43:21.083Z,3.40
2022-08-19T10:45:28.150Z,3.20
2022-08-19T10:47:31.563Z,3.67
2022-08-19T10:49:54.307Z,3.47
2022-08-19T10:52:18.990Z,2.88
2022-08-19T10:54:31.204Z,3.30
2022-08-19T10:56:54.577Z,2.83
2022-08-19T10:58:59.791Z,3.45
2022-08-19T11:01:02.313Z,3.30
2022-08-19T11:03:05.102Z,3.05
2022-08-19T11:05:12.590Z,3.30
2022-08-19T11:07:15.597Z,2.90
2022-08-19T11:09:24.339Z,3.08
2022-08-19T11:11:27.647Z,2.88
2022-08-19T11:13:36.428Z,2.92
2022-08-19T11:15:39.569Z,3.10
2022-08-19T11:17:42.497Z,3.42
2022-08-19T11:19:44.774Z,3.05
2022-08-19T11:21:49.543Z,3.40
2022-08-19T11:23:55.087Z,3.33
2022-08-19T11:26:01.227Z,3.28
2022-08-19T11:28:03.765Z,3.20
2022-08-19T11:30:08.730Z,3.03
2022-08-19T11:32:16.823Z,3.53
2022-08-19T11:34:23.028Z,3.78
2022-08-19T11:36:25.082Z,3.95
2022-08-19T11:38:28.242Z,3.78
2022-08-19T11:40:30.513Z,3.65
2022-08-19T11:42:51.425Z,3.30
2022-08-19T11:44:53.836Z,2.95
2022-08-19T11:46:56.742Z,3.15
2022-08-19T11:49:01.645Z,3.40
2022-08-19T11:51:10.584Z,3.38
2022-08-19T11:53:12.788Z,3.28
2022-08-19T11:55:15.526Z,3.50
2022-08-19T11:57:18.291Z,4.32
2022-08-19T11:59:20.748Z,3.10
2022-08-19T12:01:25.443Z,3.25
2022-08-19T12:03:27.673Z,3.58
2022-08-19T12:05:32.561Z,3.40
2022-08-19T12:07:37.680Z,3.35
2022-08-19T12:09:42.916Z,3.30
2022-08-19T12:11:45.518Z,3.80
2022-08-19T12:13:48.893Z,3.50
2022-08-19T12:15:53.251Z,3.40
2022-08-19T12:17:57.772Z,3.58
2022-08-19T12:20:00.145Z,3.35
2022-08-19T12:22:04.602Z,3.85
2022-08-19T12:24:07.763Z,3.90
2022-08-19T12:26:11.958Z,3.45
2022-08-19T12:28:14.675Z,3.80
2022-08-19T12:30:17.508Z,3.30
2022-08-19T12:32:19.912Z,3.28
2022-08-19T12:34:22.310Z,3.53
2022-08-19T12:36:25.226Z,3.40
2022-08-19T12:38:28.448Z,3.63
2022-08-19T12:40:33.925Z,4.10
2022-08-19T12:42:36.520Z,3.35
2022-08-19T12:44:41.628Z,3.45
2022-08-19T12:46:45.124Z,3.42
2022-08-19T12:48:47.821Z,3.70
2022-08-19T12:50:54.108Z,3.60
2022-08-19T12:52:59.600Z,3.92
2022-08-19T12:55:01.965Z,3.60
2022-08-19T12:57:11.840Z,3.80
2022-08-19T12:59:15.399Z,3.65
2022-08-19T13:01:22.655Z,3.78
2022-08-19T13:03:30.104Z,3.85
2022-08-19T13:05:37.042Z,3.65
2022-08-19T13:07:40.541Z,4.03
2022-08-19T13:09:43.595Z,3.45
2022-08-19T13:11:45.719Z,3.78
2022-08-19T13:13:51.267Z,3.80
2022-08-19T13:15:53.135Z,3.63
2022-08-19T13:17:57.138Z,3.58
2022-08-19T13:20:00.669Z,3.75
2022-08-19T13:22:02.545Z,3.40
2022-08-19T13:24:04.865Z,3.67
2022-08-19T13:26:09.476Z,3.60
2022-08-19T13:32:36.343Z,3.97
2022-08-19T13:34:38.608Z,3.45
2022-08-19T13:36:41.257Z,3.90
2022-08-19T13:38:43.413Z,4.18
2022-08-19T13:40:45.682Z,3.83
2022-08-19T13:42:53.666Z,3.72
2022-08-19T13:44:55.740Z,3.60
2022-08-19T13:47:10.124Z,3.97
2022-08-19T13:49:16.046Z,3.83
2022-08-19T13:51:19.136Z,3.53
2022-08-19T13:53:21.243Z,4.25
2022-08-19T13:55:25.020Z,3.63
2022-08-19T13:57:27.775Z,3.70
2022-08-19T13:59:30.025Z,3.30
2022-08-19T14:01:32.373Z,3.50
2022-08-19T14:03:35.722Z,3.40
2022-08-19T14:05:38.497Z,3.05
2022-08-19T14:07:40.728Z,3.38
2022-08-19T14:09:43.064Z,3.67
2022-08-19T14:11:48.674Z,3.80
2022-08-19T14:13:51.642Z,3.22
2022-08-19T14:15:54.424Z,3.05
2022-08-19T14:17:56.708Z,3.55
2022-08-19T14:20:10.963Z,3.97
2022-08-19T14:22:13.542Z,3.75
2022-08-19T14:24:16.691Z,3.90
2022-08-19T14:26:20.249Z,3.60
2022-08-19T14:28:22.480Z,3.85
2022-08-19T14:30:35.706Z,3.40
2022-08-19T14:32:38.758Z,3.70
2022-08-19T14:34:40.864Z,3.40
2022-08-19T14:36:43.496Z,3.22
2022-08-19T14:38:45.597Z,3.78
2022-08-19T14:40:50.058Z,3.40
2022-08-19T14:42:52.332Z,3.45
2022-08-19T14:44:55.037Z,3.53
2022-08-19T14:47:00.134Z,3.30
2022-08-19T14:49:09.416Z,3.13
2022-08-19T14:51:12.093Z,3.03
2022-08-19T14:53:14.236Z,2.92
2022-08-19T14:55:19.308Z,3.03
2022-08-19T14:57:23.798Z,2.80
2022-08-19T14:59:26.178Z,3.20
2022-08-19T15:01:28.765Z,2.60
2022-08-19T15:03:32.717Z,3.10
2022-08-19T15:05:37.078Z,3.00
2022-08-19T15:07:39.695Z,3.00
2022-08-19T15:09:43.063Z,2.90
2022-08-19T15:11:45.297Z,2.90
2022-08-19T15:13:48.539Z,2.97
2022-08-19T15:15:50.877Z,2.90
2022-08-19T15:17:54.080Z,3.40
2022-08-19T15:19:56.342Z,2.55
2022-08-19T15:21:59.809Z,3.30
2022-08-19T15:24:02.348Z,3.30
2022-08-19T15:26:07.111Z,2.75
2022-08-19T15:28:12.217Z,2.90
2022-08-19T15:30:22.031Z,3.05
2022-08-19T15:32:26.446Z,3.00
2022-08-19T15:34:29.158Z,3.17
2022-08-19T15:36:31.639Z,3.17
2022-08-19T15:38:39.537Z,3.17
2022-08-19T15:40:43.222Z,3.25
2022-08-19T15:42:45.858Z,3.20
2022-08-19T15:44:52.042Z,3.15
2022-08-19T15:46:56.417Z,3.03
2022-08-19T15:49:00.354Z,3.30
2022-08-19T15:51:03.031Z,3.47
2022-08-19T15:53:08.818Z,2.88
2022-08-19T15:55:11.072Z,2.65
2022-08-19T15:57:27.302Z,2.60
2022-08-19T15:59:48.180Z,2.95
2022-08-19T16:02:10.681Z,3.15
2022-08-19T16:04:34.227Z,2.92
2022-08-19T16:06:36.781Z,2.83
2022-08-19T16:08:48.779Z,2.72
2022-08-19T16:10:51.260Z,2.88
2022-08-19T16:12:53.570Z,2.72
2022-08-19T16:14:56.179Z,2.70
2022-08-19T16:16:58.759Z,3.15
2022-08-19T16:19:03.820Z,2.88
2022-08-19T16:21:08.730Z,2.70
2022-08-19T16:23:11.287Z,3.15
2022-08-19T16:25:14.327Z,2.80
2022-08-19T16:27:16.643Z,2.70
2022-08-19T16:29:33.545Z,3.33
2022-08-19T16:31:40.713Z,2.47
2022-08-19T16:33:43.125Z,2.90
2022-08-19T16:35:45.355Z,2.55
2022-08-19T16:37:54.433Z,3.25
2022-08-19T16:39:56.983Z,2.53
2022-08-19T16:41:59.908Z,3.00
2022-08-19T16:44:02.014Z,3.00
2022-08-19T16:46:07.343Z,2.42
2022-08-19T16:48:09.732Z,2.83
2022-08-19T16:50:13.886Z,2.80
2022-08-19T16:52:16.532Z,2.80
2022-08-19T16:54:19.229Z,2.90
2022-08-19T16:56:21.809Z,2.78
2022-08-19T16:58:28.313Z,2.80
2022-08-19T17:00:33.858Z,3.50
2022-08-19T17:02:37.382Z,3.13
2022-08-19T17:04:39.797Z,2.83
2022-08-19T17:06:43.697Z,2.60
2022-08-19T17:08:48.733Z,3.13
2022-08-19T17:11:16.430Z,3.45
2022-08-19T17:13:16.551Z,3.53
2022-08-19T17:15:19.135Z,3.30
2022-08-19T17:17:24.709Z,3.72
2022-08-19T17:19:29.688Z,3.35
2022-08-19T17:21:34.366Z,3.22
2022-08-19T17:23:43.627Z,3.33
2022-08-19T17:25:46.640Z,3.08
2022-08-19T17:27:49.416Z,3.30
2022-08-19T17:29:52.368Z,3.45
2022-08-19T17:31:54.430Z,3.55
2022-08-19T17:33:59.317Z,3.40
2022-08-19T17:36:03.785Z,3.38
2022-08-19T17:38:09.107Z,3.70
2022-08-19T17:40:15.796Z,3.65
2022-08-19T17:42:23.426Z,3.72
2022-08-19T17:44:25.702Z,3.63
2022-08-19T17:46:27.780Z,4.30
2022-08-19T17:48:32.299Z,3.67
2022-08-19T17:50:36.321Z,3.55
2022-08-19T17:52:39.998Z,3.83
2022-08-19T17:54:42.596Z,3.55
2022-08-19T17:56:46.277Z,4.40
2022-08-19T17:58:59.901Z,3.28
2022-08-19T18:01:04.111Z,3.20
2022-08-19T18:03:07.528Z,3.67
2022-08-19T18:05:14.918Z,3.85
2022-08-19T18:07:21.526Z,3.17
2022-08-19T18:09:38.655Z,4.25
2022-08-19T18:11:44.945Z,4.72
2022-08-19T18:13:55.118Z,4.40
2022-08-19T18:15:59.039Z,4.40
2022-08-19T18:18:00.951Z,4.35
2022-08-19T18:20:12.241Z,3.95
2022-08-19T18:22:37.045Z,4.65
2022-08-19T18:24:46.169Z,5.65
2022-08-19T18:26:49.681Z,7.97
2022-08-19T18:28:52.480Z,7.80
2022-08-19T18:30:56.571Z,8.68
2022-08-19T18:33:00.092Z,8.32
2022-08-19T18:35:06.923Z,7.18
2022-08-19T18:37:09.868Z,7.10
2022-08-19T18:39:30.145Z,6.93
2022-08-19T18:41:50.875Z,5.32
2022-08-19T18:44:11.744Z,5.45
2022-08-19T18:46:36.836Z,6.28
2022-08-19T18:48:58.507Z,6.22
2022-08-19T18:51:02.652Z,5.60
2022-08-19T18:53:08.106Z,6.10
2022-08-19T18:55:10.563Z,5.18
2022-08-19T18:57:13.598Z,5.03
2022-08-19T18:59:16.200Z,5.15
2022-08-19T19:01:23.320Z,4.93
2022-08-19T19:03:27.049Z,5.05
2022-08-19T19:05:29.528Z,4.78
2022-08-19T19:07:31.635Z,5.18
2022-08-19T19:09:34.567Z,5.22
2022-08-19T19:11:40.254Z,5.18
2022-08-19T19:13:48.172Z,5.35
2022-08-19T19:15:50.739Z,5.57
2022-08-19T19:17:53.062Z,5.85
2022-08-19T19:19:55.398Z,6.20
2022-08-19T19:21:58.799Z,6.88
2022-08-19T19:24:01.679Z,6.68
2022-08-19T19:26:06.224Z,6.32
2022-08-19T19:28:10.155Z,6.00
2022-08-19T19:30:16.756Z,5.38
2022-08-19T19:32:26.394Z,5.75
2022-08-19T19:34:29.716Z,5.50
2022-08-19T19:36:34.900Z,5.93
2022-08-19T19:38:37.507Z,6.13
2022-08-19T19:40:39.986Z,5.88
2022-08-19T19:42:42.216Z,5.72
2022-08-19T19:44:48.216Z,5.20
2022-08-19T19:46:51.157Z,5.00
2022-08-19T19:48:57.081Z,5.10
2022-08-19T19:52:03.993Z,4.50
2022-08-19T19:54:13.866Z,5.03
2022-08-19T19:56:16.893Z,4.90
2022-08-19T19:58:21.212Z,5.18
2022-08-19T20:00:31.259Z,5.95
2022-08-19T20:02:33.693Z,4.57
2022-08-19T20:04:39.216Z,5.38
2022-08-19T20:06:44.261Z,5.90
2022-08-19T20:09:06.228Z,6.07
2022-08-19T20:11:08.699Z,6.57
2022-08-19T20:13:11.874Z,6.15
2022-08-19T20:15:15.046Z,6.30
2022-08-19T20:17:17.034Z,6.32
2022-08-19T20:19:22.983Z,5.80
2022-08-19T20:21:32.241Z,6.07
2022-08-19T20:23:34.888Z,6.07
2022-08-19T20:25:39.092Z,6.32
2022-08-19T20:27:42.425Z,6.35
2022-08-19T20:29:45.085Z,6.85
2022-08-19T20:31:59.063Z,6.28
2022-08-19T20:34:02.214Z,6.50
2022-08-19T20:36:05.136Z,6.25
2022-08-19T20:38:08.892Z,6.50
2022-08-19T20:40:15.262Z,5.65
2022-08-19T20:42:17.535Z,5.90
2022-08-19T20:44:20.207Z,5.75
2022-08-19T20:46:22.617Z,5.57
2022-08-19T20:48:24.881Z,4.63
2022-08-19T20:50:27.103Z,5.15
2022-08-19T20:52:33.363Z,5.13
2022-08-19T20:54:35.890Z,5.40
2022-08-19T20:56:38.345Z,5.40
2022-08-19T20:58:41.783Z,4.65
2022-08-19T21:00:46.068Z,4.72
2022-08-19T21:02:48.167Z,4.93
2022-08-19T21:04:50.774Z,4.65
2022-08-19T21:06:53.197Z,4.97
2022-08-19T21:08:55.108Z,5.28
2022-08-19T21:10:58.310Z,4.25
2022-08-19T21:13:00.793Z,5.10
2022-08-19T21:15:03.181Z,4.93
2022-08-19T21:17:05.436Z,4.78
2022-08-19T21:19:07.548Z,5.28
2022-08-19T21:21:12.252Z,5.38
2022-08-19T21:23:20.957Z,5.32
2022-08-19T21:25:23.368Z,5.18
2022-08-19T21:27:25.437Z,5.80
2022-08-19T21:29:27.753Z,5.40
2022-08-19T21:31:29.723Z,5.55
2022-08-19T21:33:32.233Z,5.60
2022-08-19T21:35:34.902Z,5.97
2022-08-19T21:37:38.841Z,5.93
2022-08-19T21:39:43.675Z,5.90
2022-08-19T21:41:46.895Z,5.50
2022-08-19T21:43:52.030Z,5.50
2022-08-19T21:45:54.360Z,5.55
2022-08-19T21:47:57.016Z,5.40
2022-08-19T21:49:59.335Z,5.40
2022-08-19T21:52:02.109Z,5.65
2022-08-19T21:54:05.726Z,5.10
2022-08-19T21:56:08.053Z,5.50
2022-08-19T21:58:12.020Z,5.30
2022-08-19T22:00:18.946Z,5.47
2022-08-19T22:02:22.050Z,5.18
2022-08-19T22:04:24.381Z,5.28
2022-08-19T22:06:28.632Z,5.22
2022-08-19T22:08:31.635Z,5.88
2022-08-19T22:10:34.288Z,5.88
2022-08-19T22:12:39.152Z,5.38
2022-08-19T22:14:50.501Z,5.28
2022-08-19T22:16:52.721Z,5.07
2022-08-19T22:18:55.257Z,4.90
2022-08-19T22:20:57.943Z,5.47
2022-08-19T22:23:04.576Z,5.40
2022-08-19T22:25:12.922Z,4.85
2022-08-19T22:27:32.607Z,4.68
2022-08-19T22:29:34.737Z,5.22
2022-08-19T22:31:37.805Z,5.10
2022-08-19T22:33:40.179Z,4.88
2022-08-19T22:35:44.948Z,5.22
2022-08-19T22:37:47.194Z,5.13
2022-08-19T22:39:49.533Z,5.20
2022-08-19T22:41:52.104Z,5.28
2022-08-19T22:43:54.765Z,5.55
2022-08-19T22:45:58.378Z,5.55
2022-08-19T22:48:00.572Z,4.95
2022-08-19T22:50:03.112Z,5.25
2022-08-19T22:52:17.686Z,5.75
2022-08-19T22:54:19.913Z,4.78
2022-08-19T22:56:22.447Z,4.90
2022-08-19T22:58:28.116Z,5.05
2022-08-19T23:00:31.065Z,5.78
2022-08-19T23:02:51.562Z,5.07
2022-08-19T23:04:54.926Z,4.72
2022-08-19T23:06:57.010Z,4.63
2022-08-19T23:08:59.283Z,5.60
2022-08-19T23:11:01.565Z,5.63
2022-08-19T23:13:03.766Z,5.95
2022-08-19T23:15:14.610Z,5.78
2022-08-19T23:17:20.556Z,4.85
2022-08-19T23:19:22.661Z,5.00
2022-08-19T23:21:26.632Z,5.15
2022-08-19T23:23:28.831Z,5.60
2022-08-19T23:25:33.632Z,5.00
2022-08-19T23:27:54.409Z,4.95
2022-08-19T23:30:15.581Z,5.63
2022-08-19T23:32:19.607Z,5.32
2022-08-19T23:34:22.068Z,4.72
2022-08-19T23:36:24.044Z,4.95
2022-08-19T23:38:28.590Z,4.80
2022-08-19T23:40:30.913Z,5.13
2022-08-19T23:42:33.058Z,5.05
2022-08-19T23:44:35.285Z,5.57
2022-08-19T23:46:54.977Z,5.40
2022-08-19T23:48:57.853Z,5.63
2022-08-19T23:51:03.775Z,5.57
2022-08-19T23:53:05.829Z,4.95
2022-08-19T23:55:08.233Z,5.40
2022-08-19T23:57:13.524Z,5.15
2022-08-19T23:59:19.378Z,5.68
